Time;durP1;ratioP1;P1;durP2;ratioP2;P2;SDS_P1;SDS_P2;PMS_P1;PMS_P2;Temp;Humidity;BMP_temperature;BMP_pressure;BME280_temperature;BME280_humidity;BME280_pressure;Samples;Min_cycle;Max_cycle;Signal;HPM_P1;HPM_P2
2024/04/23 00:01:00;;;;;;;5.00;4.50;;;;;;;2.99;62.50;98520.00;5178184;27;20009;-71
2024/04/23 00:03:26;;;;;;;6.13;4.32;;;;;;;2.88;62.43;98495.72;5185931;27;20004;-71
2024/04/23 00:05:51;;;;;;;5.00;4.20;;;;;;;2.87;62.82;98488.78;5215101;27;20000;-72
2024/04/23 00:08:17;;;;;;;4.70;4.25;;;;;;;2.75;62.61;98481.25;5217527;27;20544;-71
2024/04/23 00:10:42;;;;;;;5.82;4.80;;;;;;;2.79;62.67;98493.19;5207693;27;20015;-73
2024/04/23 00:13:07;;;;;;;5.25;4.75;;;;;;;2.66;62.90;98479.72;5151319;27;20016;-72
2024/04/23 00:15:33;;;;;;;5.75;4.38;;;;;;;2.66;62.81;98477.06;5189717;27;20007;-71
2024/04/23 00:17:58;;;;;;;4.60;4.20;;;;;;;2.84;62.94;98489.13;5201506;27;20004;-71
2024/04/23 00:20:24;;;;;;;5.25;4.45;;;;;;;2.76;63.25;98482.94;5201517;27;20087;-71
2024/04/23 00:22:49;;;;;;;5.72;5.10;;;;;;;2.77;63.43;98484.59;5180025;27;20004;-71
2024/04/23 00:25:14;;;;;;;5.53;4.65;;;;;;;2.72;63.45;98481.66;5211637;27;20460;-71
2024/04/23 00:27:40;;;;;;;5.35;4.53;;;;;;;2.66;63.88;98477.06;5145307;27;20056;-71
2024/04/23 00:30:06;;;;;;;5.22;4.72;;;;;;;2.54;63.98;98460.00;5177292;27;20005;-72
2024/04/23 00:32:31;;;;;;;5.95;4.82;;;;;;;2.61;64.37;98479.47;5174924;27;20414;-71
2024/04/23 00:34:56;;;;;;;4.97;4.53;;;;;;;2.57;64.69;98478.19;5177167;27;20005;-72
2024/04/23 00:37:22;;;;;;;8.00;4.70;;;;;;;2.58;64.31;98482.53;5188962;27;20376;-72
2024/04/23 00:39:47;;;;;;;5.00;4.60;;;;;;;2.51;64.37;98486.94;5185670;27;20010;-73
2024/04/23 00:42:12;;;;;;;6.25;4.78;;;;;;;2.51;64.21;98478.97;5141922;27;20058;-73
2024/04/23 00:44:38;;;;;;;5.07;4.68;;;;;;;2.58;64.45;98487.00;5182854;27;20005;-73
2024/04/23 00:47:04;;;;;;;5.75;4.80;;;;;;;2.45;64.52;98474.38;5188217;27;20000;-73
2024/04/23 00:49:29;;;;;;;4.93;4.43;;;;;;;2.52;64.52;98488.56;5143254;27;20012;-72
2024/04/23 00:51:55;;;;;;;7.53;4.70;;;;;;;2.43;64.63;98479.06;5183621;27;20011;-72
2024/04/23 00:54:23;;;;;;;5.65;5.07;;;;;;;2.50;64.17;98482.63;5167419;27;20359;-72
2024/04/23 00:56:49;;;;;;;5.00;4.50;;;;;;;2.48;64.00;98489.13;5203224;27;20080;-72
2024/04/23 00:59:16;;;;;;;5.40;4.90;;;;;;;2.46;64.19;98472.53;5179516;27;20008;-72
2024/04/23 01:01:42;;;;;;;6.03;5.50;;;;;;;2.50;64.07;98487.94;5198398;27;20033;-73
2024/04/23 01:04:07;;;;;;;5.57;4.95;;;;;;;2.49;64.44;98485.47;5185193;27;20525;-72
2024/04/23 01:06:33;;;;;;;5.30;4.90;;;;;;;2.42;64.86;98479.25;5205533;27;20008;-72
2024/04/23 01:08:59;;;;;;;5.43;4.93;;;;;;;2.32;65.10;98468.91;5179787;27;19996;-72
2024/04/23 01:11:24;;;;;;;6.32;5.00;;;;;;;2.36;65.51;98486.13;5148295;27;20145;-72
2024/04/23 01:13:49;;;;;;;6.40;4.80;;;;;;;2.30;65.09;98476.25;5166383;27;20000;-72
2024/04/23 01:16:16;;;;;;;6.45;5.20;;;;;;;2.36;64.98;98480.81;5180863;27;20039;-72
2024/04/23 01:18:43;;;;;;;6.25;5.00;;;;;;;2.32;64.44;98468.91;5181758;27;20417;-73
2024/04/23 01:21:10;;;;;;;5.60;5.03;;;;;;;2.33;64.96;98494.47;5144674;27;20000;-72
2024/04/23 01:23:41;;;;;;;6.03;4.80;;;;;;;2.25;64.96;98462.69;5159906;27;20369;-71
2024/04/23 01:26:08;;;;;;;5.93;5.10;;;;;;;2.31;64.55;98485.84;5172817;27;20008;-72
2024/04/23 01:28:35;;;;;;;6.55;5.95;;;;;;;2.29;64.66;98466.59;5191134;27;20698;-72
2024/04/23 01:31:03;;;;;;;6.00;5.25;;;;;;;2.29;64.42;98471.91;5156544;27;20012;-72
2024/04/23 01:33:28;;;;;;;7.28;5.30;;;;;;;2.31;64.64;98469.91;5180209;27;20008;-73
2024/04/23 01:35:54;;;;;;;5.15;4.65;;;;;;;2.20;64.94;98446.47;5186210;27;19997;-73
2024/04/23 01:38:20;;;;;;;5.47;4.63;;;;;;;2.21;64.91;98448.13;5178926;27;20008;-72
2024/04/23 01:40:46;;;;;;;6.28;4.90;;;;;;;2.10;64.72;98427.38;5190242;27;20004;-72
2024/04/23 01:43:13;;;;;;;5.20;4.70;;;;;;;2.24;64.75;98461.03;5176518;27;20404;-72
2024/04/23 01:45:38;;;;;;;6.90;4.25;;;;;;;2.22;64.65;98451.63;5208801;27;20088;-72
2024/04/23 01:48:06;;;;;;;5.32;4.82;;;;;;;2.19;64.72;98446.66;5180678;27;20394;-72
2024/04/23 01:50:31;;;;;;;5.47;4.88;;;;;;;2.18;64.96;98450.31;5169142;27;20084;-72
2024/04/23 01:52:56;;;;;;;5.95;4.65;;;;;;;2.15;64.93;98454.16;5187191;27;20020;-72
2024/04/23 01:55:22;;;;;;;6.68;5.13;;;;;;;2.11;65.25;98447.59;5216495;27;20456;-72
2024/04/23 01:57:47;;;;;;;4.80;4.40;;;;;;;2.05;65.06;98445.69;5203859;27;20009;-73
2024/04/23 02:00:15;;;;;;;6.50;4.88;;;;;;;2.03;65.51;98453.81;5106365;27;20020;-73
2024/04/23 02:02:41;;;;;;;5.85;5.25;;;;;;;1.92;65.19;98445.47;5184773;27;20014;-74
2024/04/23 02:05:10;;;;;;;6.03;5.20;;;;;;;1.99;65.24;98467.63;5205046;27;20012;-74
2024/04/23 02:07:36;;;;;;;5.88;5.20;;;;;;;2.06;65.34;98463.25;5159678;27;20008;-71
2024/04/23 02:10:02;;;;;;;6.95;5.18;;;;;;;1.88;66.03;98438.91;5184337;27;20084;-71
2024/04/23 02:12:27;;;;;;;8.27;4.93;;;;;;;1.92;65.73;98442.81;5149644;27;20057;-71
2024/04/23 02:14:53;;;;;;;5.70;5.15;;;;;;;1.88;65.98;98445.03;5181311;27;20009;-75
2024/04/23 02:17:18;;;;;;;7.00;4.90;;;;;;;1.80;66.26;98425.69;5177889;27;20015;-72
2024/04/23 02:19:44;;;;;;;5.38;4.97;;;;;;;1.83;66.33;98433.31;5135965;27;20001;-72
2024/04/23 02:22:10;;;;;;;6.40;5.00;;;;;;;1.82;66.76;98431.69;5143802;27;20338;-73
2024/04/23 02:24:35;;;;;;;5.50;5.00;;;;;;;1.85;67.20;98449.88;5159037;27;20027;-74
2024/04/23 02:27:02;;;;;;;5.00;4.50;;;;;;;1.59;67.01;98412.38;5163986;27;20044;-74
2024/04/23 02:29:27;;;;;;;5.68;5.18;;;;;;;1.68;67.29;98432.50;5198931;27;20480;-74
2024/04/23 02:31:53;;;;;;;6.43;5.75;;;;;;;1.52;67.67;98422.06;5182962;27;20084;-73
2024/04/23 02:34:18;;;;;;;5.60;4.80;;;;;;;1.49;67.20;98422.41;5202146;27;20019;-75
2024/04/23 02:36:44;;;;;;;5.30;4.80;;;;;;;1.45;67.14;98421.13;5202369;27;20004;-73
2024/04/23 02:39:09;;;;;;;5.75;5.10;;;;;;;1.48;67.54;98420.75;5175301;27;20005;-72
2024/04/23 02:41:48;;;;;;;5.40;4.90;;;;;;;1.44;67.27;98417.66;5216891;27;20003;-72
2024/04/23 02:44:13;;;;;;;5.75;5.03;;;;;;;1.59;67.57;98438.91;5153307;27;20348;-72
2024/04/23 02:46:38;;;;;;;5.18;4.68;;;;;;;1.59;67.73;98438.91;5175911;27;20023;-72
2024/04/23 02:49:04;;;;;;;5.38;4.90;;;;;;;1.56;66.99;98421.50;5165458;27;20000;-72
2024/04/23 02:51:29;;;;;;;6.78;4.80;;;;;;;1.49;67.36;98419.75;5177084;27;20008;-72
2024/04/23 02:53:54;;;;;;;5.10;4.60;;;;;;;1.47;67.75;98422.56;5207387;27;20346;-73
2024/04/23 02:56:20;;;;;;;6.38;5.25;;;;;;;1.41;67.95;98436.56;5175754;27;20081;-72
2024/04/23 02:58:45;;;;;;;5.63;5.13;;;;;;;1.51;67.53;98431.84;5178953;27;20015;-73
2024/04/23 03:01:11;;;;;;;6.88;5.38;;;;;;;1.36;67.49;98412.41;5160705;27;20020;-74
2024/04/23 03:03:36;;;;;;;5.95;5.35;;;;;;;1.30;67.91;98398.06;5177228;27;20018;-72
2024/04/23 03:06:01;;;;;;;5.68;5.18;;;;;;;1.46;68.06;98428.06;5202458;27;20016;-73
2024/04/23 03:08:27;;;;;;;6.25;5.65;;;;;;;1.48;68.20;98434.03;5186322;27;20357;-72
2024/04/23 03:10:52;;;;;;;6.82;5.60;;;;;;;1.53;68.28;98439.59;5149384;27;20004;-72
2024/04/23 03:13:17;;;;;;;6.75;6.00;;;;;;;1.42;67.77;98432.09;5196646;27;20093;-73
2024/04/23 03:15:43;;;;;;;7.75;5.55;;;;;;;1.38;68.07;98424.50;5210435;27;20338;-73
2024/04/23 03:18:09;;;;;;;6.60;5.25;;;;;;;1.37;68.03;98425.50;5196953;27;20005;-73
2024/04/23 03:20:34;;;;;;;6.88;6.18;;;;;;;1.32;68.22;98422.56;5218910;27;20460;-73
2024/04/23 03:23:00;;;;;;;6.57;5.93;;;;;;;1.42;68.75;98440.06;5173532;27;20061;-74
2024/04/23 03:25:25;;;;;;;9.25;7.57;;;;;;;1.32;68.51;98437.66;5201956;27;20023;-73
2024/04/23 03:27:50;;;;;;;11.15;6.50;;;;;;;1.24;68.68;98441.19;5179426;27;20026;-73
2024/04/23 03:30:16;;;;;;;8.48;7.57;;;;;;;1.12;68.70;98432.03;5186686;27;20003;-74
2024/04/23 03:32:41;;;;;;;12.98;10.70;;;;;;;1.11;69.71;98430.38;5174842;27;20026;-73
2024/04/23 03:35:06;;;;;;;9.73;8.40;;;;;;;0.97;69.49;98435.63;5179983;27;20079;-73
2024/04/23 03:37:32;;;;;;;8.90;8.02;;;;;;;1.00;69.51;98427.34;5176435;27;20301;-73
2024/04/23 03:39:57;;;;;;;9.52;8.50;;;;;;;0.99;69.41;98431.81;5188560;27;20079;-73
2024/04/23 03:42:22;;;;;;;10.77;9.68;;;;;;;1.02;69.89;98431.47;5147452;27;20360;-73
2024/04/23 03:44:48;;;;;;;11.27;8.90;;;;;;;0.95;70.02;98425.22;5200918;27;20004;-74
2024/04/23 03:47:13;;;;;;;10.07;9.07;;;;;;;0.90;69.97;98430.22;5184159;27;20474;-74
2024/04/23 03:49:39;;;;;;;12.30;10.30;;;;;;;0.83;70.18;98410.75;5175569;27;20018;-72
2024/04/23 03:52:08;;;;;;;14.45;11.85;;;;;;;0.88;69.77;98418.16;5188332;27;20009;-71
2024/04/23 03:54:34;;;;;;;13.23;11.82;;;;;;;0.89;70.21;98419.81;5172557;27;20009;-73
2024/04/23 03:56:59;;;;;;;12.98;10.75;;;;;;;0.88;70.20;98413.69;5187941;27;20012;-72
2024/04/23 03:59:25;;;;;;;14.98;11.82;;;;;;;0.88;70.33;98411.03;5200250;27;20010;-73
2024/04/23 04:06:03;;;;;;;13.77;11.65;;;;;;;0.91;70.73;98428.41;5202372;27;20080;-74
2024/04/23 04:07:23;;;;;;;13.77;11.80;;;;;;;0.68;70.71;98375.41;5177297;27;20354;-74
2024/04/23 04:09:48;;;;;;;10.38;8.98;;;;;;;0.77;70.48;98400.03;5184739;27;20079;-74
2024/04/23 04:12:13;;;;;;;7.93;7.13;;;;;;;0.71;70.45;98393.59;5159783;27;20081;-74
2024/04/23 04:14:39;;;;;;;9.82;8.23;;;;;;;0.67;70.61;98385.19;5208024;27;20106;-73
2024/04/23 04:17:04;;;;;;;9.15;7.68;;;;;;;0.67;70.75;98384.38;5194319;27;20014;-72
2024/04/23 04:19:30;;;;;;;10.93;7.93;;;;;;;0.72;70.62;98392.59;5180256;27;20004;-74
2024/04/23 04:21:56;;;;;;;9.00;8.07;;;;;;;0.72;71.02;98397.91;5199467;27;20012;-73
2024/04/23 04:24:21;;;;;;;8.63;7.60;;;;;;;0.72;70.77;98408.50;5182953;27;20074;-74
2024/04/23 04:26:47;;;;;;;7.88;6.97;;;;;;;0.75;71.01;98413.44;5177088;27;20628;-73
2024/04/23 04:29:12;;;;;;;7.13;6.35;;;;;;;0.75;70.93;98410.78;5176590;27;20009;-73
2024/04/23 04:31:37;;;;;;;8.00;7.20;;;;;;;0.64;71.27;98401.44;5225711;27;20018;-73
2024/04/23 04:34:03;;;;;;;11.65;10.45;;;;;;;0.67;71.56;98424.13;5179957;27;20023;-72
2024/04/23 04:36:28;;;;;;;11.07;9.98;;;;;;;0.54;71.18;98413.25;5209481;21;20077;-76
2024/04/23 04:38:53;;;;;;;12.88;11.57;;;;;;;0.42;71.51;98402.25;5181815;27;20008;-76
2024/04/23 04:41:19;;;;;;;11.35;9.73;;;;;;;0.62;71.73;98429.09;5210798;27;20507;-76
2024/04/23 04:43:44;;;;;;;11.57;10.30;;;;;;;0.55;71.23;98417.56;5182112;27;20000;-75
2024/04/23 04:46:10;;;;;;;13.95;11.57;;;;;;;0.57;71.23;98412.91;5223056;27;20010;-75
2024/04/23 04:48:35;;;;;;;11.38;10.30;;;;;;;0.63;71.76;98414.88;5217605;27;20006;-72
2024/04/23 04:51:00;;;;;;;13.30;10.55;;;;;;;0.49;71.52;98394.44;5214682;27;20004;-77
2024/04/23 04:53:26;;;;;;;9.05;8.25;;;;;;;0.55;71.61;98404.31;5208148;27;20008;-77
2024/04/23 04:55:51;;;;;;;10.18;9.05;;;;;;;0.59;71.68;98410.91;5210698;27;20226;-76
2024/04/23 04:58:16;;;;;;;10.82;9.82;;;;;;;0.58;72.01;98406.63;5210763;27;20003;-77
2024/04/23 05:00:42;;;;;;;10.38;9.43;;;;;;;0.52;71.82;98381.66;5180840;27;20043;-77
2024/04/23 05:03:07;;;;;;;7.82;7.13;;;;;;;0.78;71.88;98417.56;5184024;27;20015;-77
2024/04/23 05:05:33;;;;;;;8.05;7.25;;;;;;;0.69;71.36;98396.44;5220814;27;20026;-77
2024/04/23 05:07:58;;;;;;;8.60;7.32;;;;;;;0.88;71.20;98418.16;5220145;27;20004;-77
2024/04/23 05:10:23;;;;;;;8.35;7.55;;;;;;;0.89;71.61;98412.66;5209077;27;20022;-77
2024/04/23 05:12:49;;;;;;;9.02;7.65;;;;;;;0.91;71.34;98408.00;5181073;27;20018;-77
2024/04/23 05:15:14;;;;;;;8.05;7.13;;;;;;;0.96;71.06;98404.81;5175429;27;20005;-77
2024/04/23 05:17:40;;;;;;;8.18;7.38;;;;;;;1.15;71.36;98425.53;5207717;27;20022;-77
2024/04/23 05:20:07;;;;;;;7.55;6.53;;;;;;;1.19;71.26;98416.25;5176489;27;20000;-77
2024/04/23 05:22:32;;;;;;;6.18;5.57;;;;;;;1.18;70.88;98394.19;5221182;27;20018;-77
2024/04/23 05:24:58;;;;;;;6.28;5.68;;;;;;;1.06;70.38;98373.59;5226448;27;20006;-77
2024/04/23 05:27:23;;;;;;;6.03;5.43;;;;;;;1.52;69.74;98416.75;5253661;27;20055;-77
2024/04/23 05:29:54;;;;;;;7.55;5.55;;;;;;;1.58;69.31;98416.84;5225888;26;20011;-77
2024/04/23 05:35:05;;;;;;;5.63;5.13;;;;;;;1.69;67.90;98404.94;5209794;27;20048;-77
2024/04/23 05:37:30;;;;;;;6.30;5.00;;;;;;;1.68;67.63;98387.38;5204714;27;20008;-77
2024/04/23 05:39:55;;;;;;;7.60;5.95;;;;;;;1.72;67.92;98389.47;5181198;27;20419;-77
2024/04/23 05:42:21;;;;;;;7.00;5.15;;;;;;;1.85;67.15;98394.94;5205127;27;20008;-77
2024/04/23 05:44:46;;;;;;;6.53;5.85;;;;;;;2.02;66.87;98403.53;5190321;27;20515;-76
2024/04/23 05:47:11;;;;;;;6.30;5.70;;;;;;;2.03;66.50;98398.03;5208587;27;20071;-77
2024/04/23 05:50:15;;;;;;;6.18;5.25;;;;;;;2.24;66.33;98418.50;5209454;27;20018;-77
2024/04/23 05:53:37;;;;;;;5.70;5.15;;;;;;;2.28;65.79;98416.31;5207688;27;20010;-76
2024/04/23 05:56:21;;;;;;;6.82;5.63;;;;;;;2.33;65.84;98422.75;5208066;27;20420;-77
2024/04/23 05:58:46;;;;;;;6.00;5.40;;;;;;;2.41;65.36;98411.97;5214283;27;20012;-76
2024/04/23 06:01:12;;;;;;;5.70;5.07;;;;;;;2.46;64.88;98406.94;5205269;27;20000;-77
2024/04/23 06:03:37;;;;;;;5.97;5.38;;;;;;;2.59;64.48;98411.56;5205521;27;20005;-77
2024/04/23 06:06:03;;;;;;;5.70;5.18;;;;;;;2.74;64.18;98413.16;5210096;27;20015;-77
2024/04/23 06:08:28;;;;;;;6.20;5.60;;;;;;;2.82;64.03;98411.38;5204278;27;20493;-77
2024/04/23 06:10:53;;;;;;;5.68;5.15;;;;;;;2.76;64.10;98387.19;5184410;27;20008;-77
2024/04/23 06:13:19;;;;;;;7.25;5.55;;;;;;;3.09;63.28;98430.06;5179873;27;20354;-77
2024/04/23 06:15:44;;;;;;;5.70;5.10;;;;;;;3.15;62.87;98415.97;5209610;27;20014;-78
2024/04/23 06:18:09;;;;;;;5.50;5.00;;;;;;;3.27;62.76;98418.94;5175356;27;20004;-77
2024/04/23 06:20:35;;;;;;;7.60;5.82;;;;;;;3.37;62.47;98416.78;5205270;27;20016;-77
2024/04/23 06:23:00;;;;;;;5.93;4.93;;;;;;;3.41;62.05;98423.34;5172974;27;20330;-77
2024/04/23 06:25:26;;;;;;;6.10;5.10;;;;;;;3.20;61.71;98367.50;5172095;27;20429;-77
2024/04/23 06:27:51;;;;;;;5.35;4.85;;;;;;;3.57;61.25;98414.25;5212503;27;20015;-78
2024/04/23 06:30:16;;;;;;;5.65;5.15;;;;;;;3.53;61.22;98378.38;5188899;27;20000;-77
2024/04/23 06:32:42;;;;;;;6.80;5.32;;;;;;;3.77;60.63;98400.06;5205837;27;20003;-76
2024/04/23 06:35:08;;;;;;;7.25;5.25;;;;;;;3.95;59.85;98405.69;5204469;27;20038;-76
2024/04/23 06:37:35;;;;;;;5.50;5.00;;;;;;;4.08;59.67;98405.72;5174410;27;20004;-77
2024/04/23 06:40:01;;;;;;;5.65;5.05;;;;;;;4.18;58.94;98411.53;5172924;27;20112;-77
2024/04/23 06:42:26;;;;;;;5.85;4.95;;;;;;;4.24;58.90;98403.75;5205039;27;20015;-77
2024/04/23 06:44:52;;;;;;;6.60;5.20;;;;;;;4.11;58.31;98388.53;5203901;27;20015;-77
2024/04/23 06:47:17;;;;;;;6.63;5.03;;;;;;;4.21;58.85;98399.66;5150868;27;20018;-77
2024/04/23 06:49:43;;;;;;;5.50;5.00;;;;;;;4.34;59.16;98397.03;5163251;27;20079;-77
2024/04/23 06:52:10;;;;;;;5.53;4.93;;;;;;;4.40;59.63;98392.75;5195594;27;20007;-77
2024/04/23 06:54:35;;;;;;;5.43;4.93;;;;;;;4.65;58.41;98396.50;5204143;27;20004;-76
2024/04/23 06:57:01;;;;;;;5.20;4.72;;;;;;;4.74;58.29;98400.63;5201587;27;20019;-77
2024/04/23 06:59:26;;;;;;;5.00;4.50;;;;;;;4.84;57.33;98390.38;5210594;27;20048;-77
2024/04/23 07:01:51;;;;;;;5.43;4.93;;;;;;;4.95;56.34;98399.66;5204177;27;20011;-77
2024/04/23 07:04:17;;;;;;;4.90;4.50;;;;;;;4.84;56.00;98379.72;5207907;27;20022;-76
2024/04/23 07:06:43;;;;;;;5.00;4.60;;;;;;;4.98;55.81;98397.38;5208521;27;20014;-77
2024/04/23 07:09:09;;;;;;;4.72;4.32;;;;;;;4.78;55.66;98349.31;5206134;27;20000;-77
2024/04/23 07:11:34;;;;;;;4.55;4.15;;;;;;;5.04;55.41;98385.06;5205992;27;20004;-77
2024/04/23 07:13:59;;;;;;;4.90;4.40;;;;;;;5.12;54.37;98377.69;5232678;27;19999;-76
2024/04/23 07:16:25;;;;;;;4.88;4.25;;;;;;;5.13;54.83;98373.16;5218701;27;20016;-77
2024/04/23 07:18:50;;;;;;;6.07;4.50;;;;;;;5.22;54.60;98372.75;5189161;27;20003;-77
2024/04/23 07:21:15;;;;;;;5.45;4.35;;;;;;;5.26;54.23;98368.66;5157378;27;20044;-77
2024/04/23 07:23:41;;;;;;;5.30;4.45;;;;;;;5.28;53.66;98355.06;5205228;27;20476;-77
2024/04/23 07:26:06;;;;;;;4.50;4.10;;;;;;;5.09;52.25;98314.03;5211367;27;19999;-77
2024/04/23 07:28:31;;;;;;;5.25;4.00;;;;;;;5.36;53.11;98358.38;5218390;27;20003;-76
2024/04/23 07:31:00;;;;;;;5.53;3.97;;;;;;;5.50;53.46;98375.19;5199357;27;20008;-76
2024/04/23 07:33:25;;;;;;;6.20;4.72;;;;;;;5.63;53.30;98369.81;5200465;27;20003;-76
2024/04/23 07:35:50;;;;;;;4.55;4.07;;;;;;;5.65;52.90;98372.31;5190551;27;20015;-76
2024/04/23 07:38:16;;;;;;;4.20;3.80;;;;;;;5.62;52.63;98352.16;5174018;27;20536;-77
2024/04/23 07:40:47;;;;;;;4.50;3.72;;;;;;;5.73;52.62;98348.00;5238236;27;20010;-76
2024/04/23 07:43:16;;;;;;;5.60;3.88;;;;;;;6.00;53.00;98365.63;5215702;27;20079;-76
2024/04/23 07:45:42;;;;;;;4.45;3.72;;;;;;;5.87;52.06;98338.97;5208309;27;20004;-76
2024/04/23 07:48:07;;;;;;;4.10;3.70;;;;;;;6.02;52.24;98350.22;5188861;27;20018;-76
2024/04/23 07:50:32;;;;;;;4.32;3.92;;;;;;;6.18;52.03;98357.78;5208514;27;20082;-76
2024/04/23 07:53:05;;;;;;;5.00;3.60;;;;;;;6.35;52.09;98353.56;5219974;27;20383;-77
2024/04/23 07:55:30;;;;;;;3.90;3.50;;;;;;;6.56;50.88;98358.59;5176224;27;20056;-77
2024/04/23 07:57:56;;;;;;;4.43;3.50;;;;;;;6.57;50.50;98340.69;5191092;27;20036;-77
2024/04/23 08:00:24;;;;;;;3.58;3.28;;;;;;;6.65;49.25;98335.88;5206954;27;20044;-75
2024/04/23 08:02:54;;;;;;;3.92;3.22;;;;;;;6.88;48.21;98344.16;5190876;27;20058;-77
2024/04/23 08:05:22;;;;;;;3.88;3.55;;;;;;;6.85;48.40;98349.97;5178847;27;20026;-76
2024/04/23 08:07:48;;;;;;;3.83;3.35;;;;;;;7.00;47.45;98351.50;5211189;27;20468;-76
2024/04/23 08:10:17;;;;;;;5.82;5.10;;;;;;;7.14;47.99;98353.06;5211642;27;20083;-76
2024/04/23 08:12:46;;;;;;;3.88;3.55;;;;;;;7.29;47.70;98350.84;5206718;27;20028;-76
2024/04/23 08:15:12;;;;;;;3.80;3.35;;;;;;;7.38;47.16;98355.72;5214163;27;20008;-77
2024/04/23 08:17:37;;;;;;;3.72;3.42;;;;;;;7.49;47.08;98356.88;5208267;27;19999;-76
2024/04/23 08:20:04;;;;;;;3.75;3.30;;;;;;;7.44;47.83;98335.25;5207016;27;20014;-76
2024/04/23 08:22:29;;;;;;;3.58;3.13;;;;;;;7.58;46.61;98342.13;5218614;27;20011;-77
2024/04/23 08:24:54;;;;;;;4.00;3.38;;;;;;;7.66;45.32;98347.19;5205622;27;20081;-76
2024/04/23 08:27:20;;;;;;;5.50;3.72;;;;;;;7.61;45.76;98333.63;5206729;27;20043;-76
2024/04/23 08:29:45;;;;;;;3.83;3.42;;;;;;;7.83;46.60;98337.53;5188132;27;20036;-77
2024/04/23 08:32:10;;;;;;;4.35;3.95;;;;;;;7.79;45.44;98330.97;5210105;27;20004;-76
2024/04/23 08:34:36;;;;;;;3.45;3.15;;;;;;;7.83;45.67;98332.16;5217450;27;20071;-76
2024/04/23 08:37:08;;;;;;;3.40;3.08;;;;;;;7.84;45.58;98312.34;5184446;27;20000;-76
2024/04/23 08:39:34;;;;;;;6.50;3.25;;;;;;;8.12;46.08;98346.69;5206638;27;20003;-76
2024/04/23 08:42:00;;;;;;;3.75;2.92;;;;;;;8.05;45.07;98319.91;5206737;27;20008;-76
2024/04/23 08:44:29;;;;;;;3.80;2.90;;;;;;;8.26;44.72;98349.00;5205792;27;20012;-76
2024/04/23 08:46:54;;;;;;;3.15;2.90;;;;;;;8.15;44.17;98325.59;5180490;27;20730;-76
2024/04/23 08:49:21;;;;;;;3.08;2.85;;;;;;;8.19;45.20;98334.81;5173768;27;20080;-77
2024/04/23 08:51:46;;;;;;;3.40;3.10;;;;;;;8.25;45.38;98325.06;5211448;27;20336;-75
2024/04/23 08:54:11;;;;;;;3.20;2.88;;;;;;;8.23;44.33;98306.50;5215157;27;20004;-76
2024/04/23 08:56:43;;;;;;;3.50;3.20;;;;;;;8.32;44.07;98313.22;5178428;27;20004;-76
2024/04/23 08:59:12;;;;;;;3.67;3.13;;;;;;;8.44;44.94;98309.75;5191429;27;20006;-76
2024/04/23 09:01:41;;;;;;;4.03;2.95;;;;;;;8.66;44.42;98327.81;5228475;27;20008;-76
2024/04/23 09:04:07;;;;;;;3.55;3.25;;;;;;;8.71;44.02;98319.06;5214175;27;20007;-76
2024/04/23 09:06:33;;;;;;;4.70;3.42;;;;;;;8.81;44.17;98325.53;5204264;27;20019;-76
2024/04/23 09:08:59;;;;;;;3.72;3.42;;;;;;;8.84;43.69;98319.72;5210562;27;20008;-76
2024/04/23 09:11:31;;;;;;;4.47;3.10;;;;;;;8.89;42.98;98310.97;5174000;27;21020;-76
2024/04/23 09:13:57;;;;;;;3.22;2.95;;;;;;;8.83;43.43;98317.22;5174424;27;20039;-76
2024/04/23 09:16:23;;;;;;;5.72;3.70;;;;;;;8.81;43.28;98303.22;5206226;27;20344;-76
2024/04/23 09:18:49;;;;;;;5.10;3.42;;;;;;;8.71;43.48;98270.72;5177639;27;20360;-76
2024/04/23 09:21:15;;;;;;;3.63;3.33;;;;;;;9.09;44.05;98314.13;5206126;27;20092;-78
2024/04/23 09:23:41;;;;;;;3.78;3.38;;;;;;;9.03;43.30;98288.22;5177433;27;20015;-76
2024/04/23 09:26:07;;;;;;;3.80;3.50;;;;;;;9.01;42.10;98283.03;5205893;27;20044;-77
2024/04/23 09:28:33;;;;;;;4.20;3.13;;;;;;;9.10;42.44;98286.22;5178495;27;20047;-77
2024/04/23 09:30:59;;;;;;;3.40;3.10;;;;;;;9.04;43.69;98265.66;5207562;27;20352;-76
2024/04/23 09:33:26;;;;;;;3.70;3.40;;;;;;;9.19;44.21;98278.63;5206539;27;20449;-77
2024/04/23 09:36:07;;;;;;;3.78;3.20;;;;;;;9.18;44.35;98272.44;5203734;27;20016;-76
2024/04/23 09:38:36;;;;;;;3.63;3.33;;;;;;;9.20;44.57;98277.56;5178813;27;20005;-77
2024/04/23 09:41:03;;;;;;;3.47;3.05;;;;;;;9.19;43.34;98262.50;5198057;27;20000;-76
2024/04/23 09:43:29;;;;;;;4.68;3.08;;;;;;;9.16;43.04;98265.66;5215720;27;19999;-76
2024/04/23 09:45:54;;;;;;;3.85;3.45;;;;;;;9.30;42.65;98280.50;5204838;27;20015;-76
2024/04/23 09:48:33;;;;;;;3.50;3.20;;;;;;;9.16;41.97;98258.41;5175729;27;20032;-76
2024/04/23 09:51:00;;;;;;;3.53;3.10;;;;;;;9.27;43.88;98271.03;5162406;27;19996;-77
2024/04/23 09:53:29;;;;;;;4.03;3.53;;;;;;;9.31;42.62;98256.06;5203932;27;20011;-76
2024/04/23 09:56:05;;;;;;;3.90;3.47;;;;;;;9.29;42.20;98258.16;5218084;27;20091;-76
2024/04/23 09:58:32;;;;;;;3.42;3.13;;;;;;;9.43;43.29;98264.13;5179234;27;20007;-76
2024/04/23 10:00:57;;;;;;;3.65;3.35;;;;;;;9.42;42.78;98244.50;5207476;27;20539;-75
2024/04/23 10:03:27;;;;;;;4.65;3.50;;;;;;;9.46;41.63;98242.97;5211712;27;20011;-76
2024/04/23 10:06:18;;;;;;;4.93;4.30;;;;;;;9.51;40.82;98255.69;5184769;27;20064;-75
2024/04/23 10:09:01;;;;;;;4.53;3.85;;;;;;;9.43;42.22;98227.31;5221382;27;20021;-77
2024/04/23 10:11:36;;;;;;;4.15;3.75;;;;;;;9.63;41.32;98243.06;5207738;27;20004;-76
2024/04/23 10:14:14;;;;;;;4.68;3.40;;;;;;;9.71;42.14;98235.44;5168106;27;20031;-76
2024/04/23 10:16:47;;;;;;;4.07;3.67;;;;;;;9.89;41.80;98220.19;5207539;27;20007;-76
2024/04/23 10:19:14;;;;;;;3.95;3.65;;;;;;;10.08;41.27;98233.19;5180719;27;20519;-76
2024/04/23 10:21:42;;;;;;;3.70;3.40;;;;;;;10.11;41.41;98235.44;5207518;27;20015;-76
2024/04/23 10:24:10;;;;;;;3.90;3.60;;;;;;;10.12;41.53;98220.13;5204998;27;20070;-76
2024/04/23 10:26:40;;;;;;;3.88;3.58;;;;;;;9.87;41.06;98214.25;5207145;27;20052;-76
2024/04/23 10:29:12;;;;;;;3.65;3.35;;;;;;;10.01;41.45;98211.00;5208529;27;20011;-76
2024/04/23 10:31:39;;;;;;;3.70;3.40;;;;;;;10.06;41.46;98221.88;5208238;27;20007;-76
2024/04/23 10:34:06;;;;;;;4.15;3.20;;;;;;;10.07;40.32;98190.41;5207656;27;20007;-76
2024/04/23 10:36:39;;;;;;;4.80;3.45;;;;;;;9.98;39.66;98186.47;5178825;27;20104;-76
2024/04/23 10:39:06;;;;;;;3.72;3.35;;;;;;;10.14;41.53;98201.88;5213937;21;20087;-74
2024/04/23 10:41:37;;;;;;;3.65;3.22;;;;;;;10.33;41.51;98184.44;5215477;27;20026;-74
2024/04/23 10:44:03;;;;;;;3.72;3.05;;;;;;;10.39;40.04;98186.16;5211987;27;20004;-74
2024/04/23 10:46:28;;;;;;;3.50;3.20;;;;;;;10.33;39.66;98168.31;5214003;27;20008;-74
2024/04/23 10:48:55;;;;;;;3.35;3.05;;;;;;;10.33;39.64;98187.16;5214405;27;20529;-74
2024/04/23 10:51:21;;;;;;;3.75;3.45;;;;;;;10.29;39.82;98151.03;5233636;27;20031;-74
2024/04/23 10:53:47;;;;;;;3.80;3.28;;;;;;;10.54;39.90;98172.97;5215825;27;20098;-74
2024/04/23 10:56:25;;;;;;;4.22;3.83;;;;;;;10.61;39.32;98180.88;5183705;27;20059;-74
2024/04/23 10:59:04;;;;;;;3.72;3.33;;;;;;;10.85;40.59;98166.97;5215609;27;20869;-74
2024/04/23 11:01:30;;;;;;;3.80;3.50;;;;;;;11.17;39.88;98179.84;5181957;27;20015;-74
2024/04/23 11:04:01;;;;;;;4.28;3.40;;;;;;;11.17;39.48;98163.66;5195737;27;20007;-74
2024/04/23 11:06:35;;;;;;;3.42;3.13;;;;;;;11.34;39.91;98167.16;5192976;27;20018;-74
2024/04/23 11:09:11;;;;;;;3.85;3.55;;;;;;;11.43;37.97;98171.03;5197969;27;20036;-74
2024/04/23 11:11:37;;;;;;;4.03;3.55;;;;;;;11.52;38.69;98172.22;5197443;27;20003;-74
2024/04/23 11:14:02;;;;;;;5.07;3.63;;;;;;;11.52;38.25;98150.66;5214647;27;20099;-74
2024/04/23 11:16:28;;;;;;;3.58;2.95;;;;;;;11.70;37.52;98163.84;5198776;27;20087;-74
2024/04/23 11:18:53;;;;;;;3.75;3.45;;;;;;;11.46;37.31;98140.88;5224700;27;19999;-75
2024/04/23 11:21:26;;;;;;;3.80;3.50;;;;;;;11.42;38.43;98143.25;5227869;27;20468;-74
2024/04/23 11:23:52;;;;;;;4.20;3.80;;;;;;;11.63;39.02;98144.31;5197048;27;20629;-74
2024/04/23 11:26:23;;;;;;;3.70;3.40;;;;;;;11.51;37.72;98149.81;5226609;27;20079;-75
2024/04/23 11:28:49;;;;;;;4.32;3.63;;;;;;;11.45;38.14;98141.94;5234177;27;20098;-75
2024/04/23 11:31:15;;;;;;;3.85;3.05;;;;;;;11.42;38.69;98135.16;5228903;27;20004;-74
2024/04/23 11:33:41;;;;;;;5.38;3.40;;;;;;;11.47;38.23;98119.03;5221737;27;20015;-75
2024/04/23 11:36:07;;;;;;;4.00;3.60;;;;;;;11.45;37.42;98117.66;5203313;27;20024;-75
2024/04/23 11:38:40;;;;;;;3.97;3.58;;;;;;;11.67;38.35;98132.78;5222181;27;20083;-75
2024/04/23 11:41:11;;;;;;;4.10;3.20;;;;;;;11.82;38.69;98124.06;5177486;27;20367;-74
2024/04/23 11:43:38;;;;;;;3.97;3.50;;;;;;;11.85;39.27;98096.56;5229681;27;20007;-74